Time;durP1;ratioP1;P1;durP2;ratioP2;P2;SDS_P1;SDS_P2;PMS_P1;PMS_P2;Temp;Humidity;BMP_temperature;BMP_pressure;BME280_temperature;BME280_humidity;BME280_pressure;Samples;Min_cycle;Max_cycle;Signal;HPM_P1;HPM_P2
2022/11/03 00:01:41;;;;;;;12.73;2.10;;;;;;;;;;4948983;28;20051;-70
2022/11/03 00:04:09;;;;;;;14.77;2.63;;;;;;;;;;4944678;28;20052;-70
2022/11/03 00:06:37;;;;;;;15.40;2.47;;;;;;;;;;4947341;28;20137;-71
2022/11/03 00:09:05;;;;;;;21.20;3.10;;;;;;;;;;4943674;28;20477;-70
2022/11/03 00:11:33;;;;;;;15.10;2.58;;;;;;;;;;4949252;28;20098;-72
2022/11/03 00:14:00;;;;;;;17.73;2.70;;;;;;;;;;4929914;28;20059;-69
2022/11/03 00:16:28;;;;;;;18.30;2.50;;;;;;;;;;4932582;28;20333;-69
2022/11/03 00:18:56;;;;;;;19.33;2.92;;;;;;;;;;4948976;28;20102;-70
2022/11/03 00:21:24;;;;;;;15.25;2.63;;;;;;;;;;4949542;28;20051;-71
2022/11/03 00:23:51;;;;;;;15.20;2.45;;;;;;;;;;4927989;28;20059;-69
2022/11/03 00:26:19;;;;;;;13.40;2.30;;;;;;;;;;4939788;28;20477;-70
2022/11/03 00:28:47;;;;;;;19.10;2.83;;;;;;;;;;4929221;29;20054;-70
2022/11/03 00:31:15;;;;;;;16.77;2.53;;;;;;;;;;4931137;29;20381;-70
2022/11/03 00:33:43;;;;;;;11.85;2.03;;;;;;;;;;4947185;28;20051;-70
2022/11/03 00:36:12;;;;;;;14.52;2.50;;;;;;;;;;4950905;28;20051;-70
2022/11/03 00:38:39;;;;;;;11.85;2.25;;;;;;;;;;4931646;28;20433;-71
2022/11/03 00:41:07;;;;;;;15.65;2.15;;;;;;;;;;4936914;28;20058;-70
2022/11/03 00:43:35;;;;;;;14.88;2.20;;;;;;;;;;4950098;28;20620;-69
2022/11/03 00:46:03;;;;;;;15.68;3.10;;;;;;;;;;4943975;28;20075;-70
2022/11/03 00:48:31;;;;;;;15.40;2.50;;;;;;;;;;4930122;29;20047;-69
2022/11/03 00:51:02;;;;;;;15.25;2.35;;;;;;;;;;4946929;28;20312;-69
2022/11/03 00:53:31;;;;;;;15.38;2.95;;;;;;;;;;4945132;28;20537;-70
2022/11/03 00:55:59;;;;;;;18.15;2.42;;;;;;;;;;4944808;28;20048;-69
2022/11/03 00:58:26;;;;;;;17.85;2.33;;;;;;;;;;4926499;29;20051;-71
2022/11/03 01:00:58;;;;;;;15.35;2.65;;;;;;;;;;4946793;28;20062;-71
2022/11/03 01:03:26;;;;;;;21.65;2.70;;;;;;;;;;4943594;28;20550;-73
2022/11/03 01:08:39;;;;;;;15.90;2.70;;;;;;;;;;4951095;28;20047;-71
2022/11/03 01:13:52;;;;;;;17.95;2.90;;;;;;;;;;4947962;28;20514;-69
2022/11/03 01:16:19;;;;;;;14.85;2.13;;;;;;;;;;4950590;28;20384;-70
2022/11/03 01:18:46;;;;;;;18.00;2.70;;;;;;;;;;4930370;28;20056;-70
2022/11/03 01:21:14;;;;;;;16.40;2.67;;;;;;;;;;4921620;28;20062;-70
2022/11/03 01:23:42;;;;;;;22.77;2.65;;;;;;;;;;4937468;28;20403;-70
2022/11/03 01:26:11;;;;;;;11.68;2.13;;;;;;;;;;4931475;28;20051;-68
2022/11/03 01:28:39;;;;;;;16.15;2.40;;;;;;;;;;4920652;29;20059;-69
2022/11/03 01:31:06;;;;;;;21.85;3.08;;;;;;;;;;4929233;29;20070;-71
2022/11/03 01:33:34;;;;;;;19.27;2.70;;;;;;;;;;4943130;28;20070;-70
2022/11/03 01:36:01;;;;;;;20.23;3.63;;;;;;;;;;4946524;28;20043;-69
2022/11/03 01:38:31;;;;;;;22.08;2.85;;;;;;;;;;4946257;28;20051;-70
2022/11/03 01:41:00;;;;;;;15.07;2.47;;;;;;;;;;4927102;29;20055;-70
2022/11/03 01:43:30;;;;;;;16.70;2.85;;;;;;;;;;4928204;29;20055;-70
2022/11/03 01:45:59;;;;;;;15.60;2.92;;;;;;;;;;4932009;28;20069;-70
2022/11/03 01:48:26;;;;;;;18.92;2.78;;;;;;;;;;4945238;28;20066;-70
2022/11/03 01:50:54;;;;;;;19.80;3.22;;;;;;;;;;4948816;28;20051;-70
2022/11/03 01:53:21;;;;;;;16.75;2.60;;;;;;;;;;4948052;28;20048;-70
2022/11/03 01:55:50;;;;;;;14.98;2.60;;;;;;;;;;4929189;28;20058;-70
2022/11/03 01:58:20;;;;;;;20.45;2.83;;;;;;;;;;4943026;28;20055;-72
2022/11/03 02:00:49;;;;;;;15.73;3.35;;;;;;;;;;4927472;28;20395;-71
2022/11/03 02:05:53;;;;;;;19.40;2.75;;;;;;;;;;5728866;23;20062;-69
2022/11/03 02:08:22;;;;;;;19.50;3.00;;;;;;;;;;4959932;28;20051;-70
2022/11/03 02:10:50;;;;;;;16.75;2.50;;;;;;;;;;4967934;28;20081;-70
2022/11/03 02:13:20;;;;;;;18.70;2.42;;;;;;;;;;4967760;28;20047;-70
2022/11/03 02:15:48;;;;;;;14.38;2.17;;;;;;;;;;4960352;28;20039;-70
2022/11/03 02:18:16;;;;;;;15.82;2.33;;;;;;;;;;4963375;28;20058;-70
2022/11/03 02:20:46;;;;;;;14.05;2.60;;;;;;;;;;4982644;28;20058;-70
2022/11/03 02:23:20;;;;;;;20.05;2.40;;;;;;;;;;4966765;28;20414;-70
2022/11/03 02:25:50;;;;;;;20.40;2.80;;;;;;;;;;4958308;28;20102;-70
2022/11/03 02:28:19;;;;;;;13.55;2.88;;;;;;;;;;4959925;28;20122;-71
2022/11/03 02:30:48;;;;;;;14.55;2.50;;;;;;;;;;4960670;28;20054;-70
2022/11/03 02:33:21;;;;;;;16.20;2.70;;;;;;;;;;4968122;28;20416;-70
2022/11/03 02:35:51;;;;;;;11.80;2.38;;;;;;;;;;4948717;28;20361;-71
2022/11/03 02:38:20;;;;;;;18.02;2.55;;;;;;;;;;4961322;28;20057;-69
2022/11/03 02:40:50;;;;;;;15.25;2.63;;;;;;;;;;4962720;28;20051;-69
2022/11/03 02:43:18;;;;;;;12.90;2.15;;;;;;;;;;4964334;28;20058;-70
2022/11/03 02:45:47;;;;;;;12.60;2.45;;;;;;;;;;4966908;28;20050;-69
2022/11/03 02:48:15;;;;;;;17.77;2.80;;;;;;;;;;4962206;28;20047;-70
2022/11/03 02:50:42;;;;;;;19.27;2.70;;;;;;;;;;4949117;28;20090;-71
2022/11/03 02:53:12;;;;;;;13.70;2.33;;;;;;;;;;4967437;28;20057;-70
2022/11/03 02:55:41;;;;;;;15.60;2.30;;;;;;;;;;4961012;28;20092;-70
2022/11/03 02:58:13;;;;;;;14.43;2.17;;;;;;;;;;4967378;28;20039;-70
2022/11/03 03:00:44;;;;;;;20.17;3.28;;;;;;;;;;4965475;28;20059;-70
2022/11/03 03:03:14;;;;;;;19.45;2.50;;;;;;;;;;4965223;28;20477;-69
2022/11/03 03:05:43;;;;;;;15.25;2.30;;;;;;;;;;4963965;28;20054;-70
2022/11/03 03:08:11;;;;;;;17.25;2.40;;;;;;;;;;4963477;28;20466;-69
2022/11/03 03:10:40;;;;;;;13.02;2.33;;;;;;;;;;4961540;28;20509;-70
2022/11/03 03:13:08;;;;;;;19.48;2.78;;;;;;;;;;4960384;28;20087;-71
2022/11/03 03:15:41;;;;;;;14.07;2.50;;;;;;;;;;4963373;28;20121;-70
2022/11/03 03:18:13;;;;;;;22.60;3.92;;;;;;;;;;4957921;28;20501;-69
2022/11/03 03:20:43;;;;;;;14.02;2.50;;;;;;;;;;4966388;28;20054;-69
2022/11/03 03:23:14;;;;;;;18.25;2.60;;;;;;;;;;4964231;28;20398;-70
2022/11/03 03:25:42;;;;;;;22.65;3.30;;;;;;;;;;4955326;28;20053;-70
2022/11/03 03:28:11;;;;;;;14.68;2.75;;;;;;;;;;4959693;28;20063;-69
2022/11/03 03:30:41;;;;;;;18.13;2.50;;;;;;;;;;4957385;28;20055;-69
2022/11/03 03:33:08;;;;;;;19.48;2.85;;;;;;;;;;4962908;28;20050;-70
2022/11/03 03:35:37;;;;;;;12.63;2.15;;;;;;;;;;4960482;28;20055;-69
2022/11/03 03:38:06;;;;;;;16.27;2.50;;;;;;;;;;4963225;28;20067;-70
2022/11/03 03:40:36;;;;;;;13.50;1.92;;;;;;;;;;4965666;28;20414;-70
2022/11/03 03:43:05;;;;;;;20.27;3.28;;;;;;;;;;4963494;28;20280;-71
2022/11/03 03:45:32;;;;;;;35.10;4.45;;;;;;;;;;4966277;28;20054;-70
2022/11/03 03:48:01;;;;;;;13.82;2.40;;;;;;;;;;4964709;28;20057;-71
2022/11/03 03:50:30;;;;;;;19.98;2.95;;;;;;;;;;4967310;28;20050;-70
2022/11/03 03:52:58;;;;;;;14.30;2.10;;;;;;;;;;4965133;28;20066;-70
2022/11/03 03:55:27;;;;;;;13.70;2.75;;;;;;;;;;4960498;28;20050;-69
2022/11/03 03:57:54;;;;;;;13.75;2.47;;;;;;;;;;4962410;28;20417;-69
2022/11/03 04:00:21;;;;;;;17.35;2.67;;;;;;;;;;4965185;28;20323;-70
2022/11/03 04:02:48;;;;;;;12.45;2.28;;;;;;;;;;4966538;28;20042;-70
2022/11/03 04:05:17;;;;;;;16.90;2.53;;;;;;;;;;4966034;28;20046;-70
2022/11/03 04:07:47;;;;;;;12.20;1.88;;;;;;;;;;4957337;28;20063;-70
2022/11/03 04:10:15;;;;;;;16.45;2.40;;;;;;;;;;4958380;28;20401;-70
2022/11/03 04:23:44;;;;;;;18.05;2.38;;;;;;;;;;4961189;28;20051;-69
2022/11/03 04:26:13;;;;;;;15.05;2.38;;;;;;;;;;4957844;28;20494;-70
2022/11/03 04:28:41;;;;;;;20.27;2.78;;;;;;;;;;4958255;28;20425;-70
2022/11/03 04:31:11;;;;;;;10.30;2.45;;;;;;;;;;4957161;28;20054;-70
2022/11/03 04:33:38;;;;;;;21.10;2.55;;;;;;;;;;4962197;28;20678;-69
2022/11/03 04:36:11;;;;;;;11.90;2.15;;;;;;;;;;4953353;28;20592;-69
2022/11/03 04:38:38;;;;;;;16.05;2.78;;;;;;;;;;4958039;28;20051;-69
2022/11/03 04:41:07;;;;;;;17.65;3.53;;;;;;;;;;4959793;28;20050;-69
2022/11/03 04:43:35;;;;;;;20.45;2.90;;;;;;;;;;4955078;28;20410;-70
2022/11/03 04:46:03;;;;;;;13.85;2.35;;;;;;;;;;4958670;28;20243;-69
2022/11/03 04:48:30;;;;;;;13.13;2.15;;;;;;;;;;4961169;28;20050;-70
2022/11/03 04:50:59;;;;;;;15.23;2.58;;;;;;;;;;4958786;28;20047;-69
2022/11/03 04:53:29;;;;;;;22.52;2.85;;;;;;;;;;4959468;28;20063;-69
2022/11/03 04:55:56;;;;;;;18.17;2.85;;;;;;;;;;4961445;28;20248;-69
2022/11/03 04:58:26;;;;;;;13.98;3.08;;;;;;;;;;4961043;28;20054;-71
2022/11/03 05:00:55;;;;;;;14.77;2.40;;;;;;;;;;4960704;28;20058;-70
2022/11/03 05:03:23;;;;;;;13.90;2.45;;;;;;;;;;4958701;28;20122;-69
2022/11/03 05:05:51;;;;;;;16.92;2.10;;;;;;;;;;4954932;28;20147;-70
2022/11/03 05:08:19;;;;;;;15.63;2.40;;;;;;;;;;4962043;28;20046;-70
2022/11/03 05:10:48;;;;;;;15.82;2.60;;;;;;;;;;4964041;28;20094;-69
2022/11/03 05:13:18;;;;;;;19.13;3.15;;;;;;;;;;4956166;28;20058;-70
2022/11/03 05:15:46;;;;;;;19.23;2.90;;;;;;;;;;4957311;28;20050;-69
2022/11/03 05:18:18;;;;;;;12.07;2.58;;;;;;;;;;4951777;28;20047;-70
2022/11/03 05:20:48;;;;;;;12.30;2.30;;;;;;;;;;4962133;28;20058;-69
2022/11/03 05:23:16;;;;;;;13.00;2.25;;;;;;;;;;4962665;28;20058;-69
2022/11/03 05:25:44;;;;;;;14.95;2.35;;;;;;;;;;4966343;28;20050;-70
2022/11/03 05:28:20;;;;;;;14.13;2.55;;;;;;;;;;4963084;28;20061;-69
2022/11/03 05:30:48;;;;;;;17.40;2.38;;;;;;;;;;4952495;28;20083;-69
2022/11/03 05:33:19;;;;;;;17.80;2.60;;;;;;;;;;4958419;28;20069;-70
2022/11/03 05:35:46;;;;;;;14.90;2.17;;;;;;;;;;4963358;28;20131;-69
2022/11/03 05:38:15;;;;;;;15.77;2.75;;;;;;;;;;4961734;28;20435;-69
2022/11/03 05:40:42;;;;;;;15.75;2.40;;;;;;;;;;4963436;28;20401;-70
2022/11/03 05:43:11;;;;;;;16.63;3.05;;;;;;;;;;4964963;28;20123;-69
2022/11/03 05:45:40;;;;;;;13.10;2.30;;;;;;;;;;4965031;28;20533;-69
2022/11/03 05:48:13;;;;;;;18.83;2.83;;;;;;;;;;4967313;28;20050;-69
2022/11/03 05:50:41;;;;;;;18.35;2.42;;;;;;;;;;4963140;28;20054;-69
2022/11/03 05:53:16;;;;;;;16.98;2.65;;;;;;;;;;4968027;28;20070;-70
2022/11/03 05:55:43;;;;;;;15.07;2.72;;;;;;;;;;4961533;28;20055;-69
2022/11/03 05:58:15;;;;;;;20.73;2.63;;;;;;;;;;4968288;28;20050;-69
2022/11/03 06:00:44;;;;;;;12.93;1.90;;;;;;;;;;4954462;28;20063;-69
2022/11/03 06:03:15;;;;;;;17.60;2.70;;;;;;;;;;4956031;28;20059;-70
2022/11/03 06:05:42;;;;;;;17.67;2.75;;;;;;;;;;4961675;28;20444;-69
2022/11/03 06:08:14;;;;;;;16.83;2.60;;;;;;;;;;4965142;28;20509;-69
2022/11/03 06:10:42;;;;;;;16.42;2.60;;;;;;;;;;4963792;28;20047;-70
2022/11/03 06:13:14;;;;;;;15.65;2.95;;;;;;;;;;4963576;28;20505;-70
2022/11/03 06:15:43;;;;;;;15.77;2.92;;;;;;;;;;4959766;28;20059;-70
2022/11/03 06:18:15;;;;;;;14.18;2.22;;;;;;;;;;4965731;28;20054;-70
2022/11/03 06:20:42;;;;;;;14.45;2.38;;;;;;;;;;4964796;28;20047;-70
2022/11/03 06:23:10;;;;;;;17.88;2.65;;;;;;;;;;4957719;28;20051;-70
2022/11/03 06:25:40;;;;;;;13.88;2.45;;;;;;;;;;4962528;28;20059;-71
2022/11/03 06:28:11;;;;;;;11.90;2.88;;;;;;;;;;4955288;28;20508;-72
2022/11/03 06:30:40;;;;;;;11.35;2.08;;;;;;;;;;4962288;28;20055;-70
2022/11/03 06:33:11;;;;;;;13.23;2.00;;;;;;;;;;4954309;28;20133;-70
2022/11/03 06:35:39;;;;;;;17.02;2.88;;;;;;;;;;4956848;28;20413;-70
2022/11/03 06:38:13;;;;;;;16.35;3.13;;;;;;;;;;4961478;28;20486;-69
2022/11/03 06:40:40;;;;;;;9.00;2.28;;;;;;;;;;4954274;28;20134;-70
2022/11/03 06:43:21;;;;;;;16.38;2.67;;;;;;;;;;4957812;28;20055;-70
2022/11/03 06:45:53;;;;;;;14.98;2.47;;;;;;;;;;4965199;28;20043;-70
2022/11/03 06:48:30;;;;;;;17.92;3.03;;;;;;;;;;4960369;28;20482;-70
2022/11/03 06:50:59;;;;;;;15.13;2.60;;;;;;;;;;4957567;28;20138;-70
2022/11/03 06:53:28;;;;;;;20.63;2.65;;;;;;;;;;4957347;28;20109;-70
2022/11/03 06:55:55;;;;;;;14.10;2.08;;;;;;;;;;4963904;28;20381;-70
2022/11/03 06:58:27;;;;;;;12.95;2.33;;;;;;;;;;4966075;28;20062;-70
2022/11/03 07:00:56;;;;;;;16.42;2.33;;;;;;;;;;4963969;28;20047;-70
2022/11/03 07:03:25;;;;;;;15.20;2.28;;;;;;;;;;4964425;28;20047;-69
2022/11/03 07:05:56;;;;;;;11.40;1.98;;;;;;;;;;4965166;28;20572;-70
2022/11/03 07:08:26;;;;;;;16.00;3.03;;;;;;;;;;4964731;28;20059;-69
2022/11/03 07:10:58;;;;;;;17.48;2.58;;;;;;;;;;4964946;28;20062;-70
2022/11/03 07:13:25;;;;;;;15.10;2.40;;;;;;;;;;4960257;28;20126;-70
2022/11/03 07:15:52;;;;;;;17.05;2.30;;;;;;;;;;4962226;28;20382;-71
2022/11/03 07:18:21;;;;;;;13.15;2.20;;;;;;;;;;4959247;28;20054;-70
2022/11/03 07:20:49;;;;;;;16.13;2.80;;;;;;;;;;4960838;28;20054;-71
2022/11/03 07:23:18;;;;;;;18.42;2.67;;;;;;;;;;4959675;28;20078;-70
2022/11/03 07:25:52;;;;;;;13.30;2.33;;;;;;;;;;4961913;28;20062;-70
2022/11/03 07:28:19;;;;;;;23.80;3.92;;;;;;;;;;4953029;28;20494;-70
2022/11/03 07:30:46;;;;;;;16.15;3.50;;;;;;;;;;4956437;28;20047;-70
2022/11/03 07:33:16;;;;;;;23.25;4.50;;;;;;;;;;4964663;28;20073;-69
2022/11/03 07:35:45;;;;;;;10.80;2.38;;;;;;;;;;4964232;28;20063;-69
2022/11/03 07:38:13;;;;;;;12.20;2.25;;;;;;;;;;4958368;28;20057;-71
2022/11/03 07:40:41;;;;;;;21.13;2.90;;;;;;;;;;4964908;28;20429;-70
2022/11/03 07:43:19;;;;;;;18.08;2.63;;;;;;;;;;4957523;28;20046;-70
2022/11/03 07:45:49;;;;;;;12.70;2.38;;;;;;;;;;4960335;28;20093;-70
2022/11/03 07:48:21;;;;;;;16.17;2.33;;;;;;;;;;4962146;28;20066;-71
2022/11/03 07:50:49;;;;;;;12.32;2.30;;;;;;;;;;4959182;28;20062;-71
2022/11/03 07:53:19;;;;;;;16.65;2.63;;;;;;;;;;4963556;28;20057;-71
2022/11/03 07:55:50;;;;;;;18.52;2.67;;;;;;;;;;4959175;28;20061;-70
2022/11/03 07:58:35;;;;;;;12.07;2.60;;;;;;;;;;4962513;28;20058;-70
2022/11/03 08:01:08;;;;;;;11.52;2.22;;;;;;;;;;4959117;28;20051;-70
2022/11/03 08:03:41;;;;;;;14.32;2.42;;;;;;;;;;4961815;28;20058;-70
2022/11/03 08:06:08;;;;;;;14.40;2.87;;;;;;;;;;4956359;28;20073;-70
2022/11/03 08:08:35;;;;;;;14.85;2.75;;;;;;;;;;4961557;28;20059;-70
2022/11/03 08:11:03;;;;;;;16.50;2.67;;;;;;;;;;4953676;28;20074;-70
2022/11/03 08:13:30;;;;;;;14.77;2.90;;;;;;;;;;4956460;28;20562;-70
2022/11/03 08:15:57;;;;;;;12.82;2.60;;;;;;;;;;4964613;28;20078;-70
2022/11/03 08:18:26;;;;;;;16.27;2.67;;;;;;;;;;4961876;28;20057;-69
2022/11/03 08:20:53;;;;;;;16.33;3.05;;;;;;;;;;4963148;28;20655;-69
2022/11/03 08:23:20;;;;;;;13.32;2.42;;;;;;;;;;4960226;28;20047;-69
2022/11/03 08:25:48;;;;;;;12.80;2.88;;;;;;;;;;4961642;28;20055;-70
2022/11/03 08:28:25;;;;;;;15.48;2.55;;;;;;;;;;5138445;27;20480;-69
2022/11/03 08:30:52;;;;;;;14.23;2.65;;;;;;;;;;5112048;28;20059;-68
2022/11/03 08:33:19;;;;;;;17.48;2.53;;;;;;;;;;5113542;28;20087;-68
2022/11/03 08:35:46;;;;;;;16.95;2.58;;;;;;;;;;5115789;28;20062;-71
2022/11/03 08:38:14;;;;;;;14.52;3.00;;;;;;;;;;5117940;28;20130;-71
2022/11/03 08:40:41;;;;;;;14.40;2.78;;;;;;;;;;5120215;28;20054;-71
2022/11/03 08:43:08;;;;;;;14.50;2.75;;;;;;;;;;5116030;28;20048;-71
2022/11/03 08:45:37;;;;;;;15.88;2.70;;;;;;;;;;5119899;28;20124;-71
2022/11/03 08:48:04;;;;;;;16.17;2.85;;;;;;;;;;5117847;28;20043;-71
2022/11/03 08:50:31;;;;;;;14.48;2.75;;;;;;;;;;5116148;28;20126;-71
2022/11/03 08:52:59;;;;;;;20.00;2.65;;;;;;;;;;5118227;28;20460;-71
2022/11/03 08:55:26;;;;;;;16.05;2.95;;;;;;;;;;5111465;28;20685;-70
2022/11/03 08:57:53;;;;;;;9.13;2.55;;;;;;;;;;5117635;28;20051;-70
2022/11/03 09:00:21;;;;;;;12.57;2.78;;;;;;;;;;5116960;28;20070;-70
2022/11/03 09:02:50;;;;;;;10.05;2.05;;;;;;;;;;5099992;28;20044;-70
2022/11/03 09:05:17;;;;;;;12.75;2.58;;;;;;;;;;5115883;28;20601;-71
2022/11/03 09:07:44;;;;;;;14.30;3.20;;;;;;;;;;5095425;28;20048;-70
2022/11/03 09:10:11;;;;;;;14.52;2.33;;;;;;;;;;5098165;28;20048;-71
2022/11/03 09:12:39;;;;;;;18.50;3.08;;;;;;;;;;5093976;28;20123;-71
2022/11/03 09:15:06;;;;;;;16.95;2.55;;;;;;;;;;5099323;28;20052;-71
2022/11/03 09:17:34;;;;;;;13.32;3.15;;;;;;;;;;5096461;28;20063;-71
2022/11/03 09:20:02;;;;;;;16.60;2.72;;;;;;;;;;5097332;28;20054;-70
2022/11/03 09:22:30;;;;;;;15.85;2.53;;;;;;;;;;5091106;28;20056;-70
2022/11/03 09:24:57;;;;;;;18.17;3.58;;;;;;;;;;5096121;28;20063;-71
2022/11/03 09:27:24;;;;;;;11.30;2.42;;;;;;;;;;5099588;28;20510;-71
2022/11/03 09:29:51;;;;;;;15.50;2.83;;;;;;;;;;5095248;28;20563;-71
2022/11/03 09:32:18;;;;;;;12.85;2.67;;;;;;;;;;5093249;28;20059;-71
2022/11/03 09:34:46;;;;;;;13.93;2.38;;;;;;;;;;5096148;28;20512;-71
2022/11/03 09:37:14;;;;;;;13.82;3.30;;;;;;;;;;5098242;28;20052;-70
2022/11/03 09:39:42;;;;;;;13.07;2.53;;;;;;;;;;5086543;28;20051;-70
2022/11/03 09:42:10;;;;;;;15.77;3.00;;;;;;;;;;5085248;28;20473;-70
2022/11/03 09:44:37;;;;;;;14.07;2.90;;;;;;;;;;5060101;28;20059;-71
2022/11/03 09:47:05;;;;;;;10.23;2.47;;;;;;;;;;5083105;28;20052;-71
2022/11/03 09:49:33;;;;;;;19.58;2.58;;;;;;;;;;5081412;28;20056;-70
2022/11/03 09:52:01;;;;;;;10.05;2.70;;;;;;;;;;5068106;28;20052;-71
2022/11/03 09:54:30;;;;;;;13.02;2.58;;;;;;;;;;5065625;28;20052;-70
2022/11/03 09:56:59;;;;;;;9.77;2.40;;;;;;;;;;5066582;28;20055;-71
2022/11/03 09:59:26;;;;;;;17.20;2.50;;;;;;;;;;5080600;28;20047;-70
2022/11/03 10:01:53;;;;;;;11.95;2.55;;;;;;;;;;5061642;28;20051;-71
2022/11/03 10:04:23;;;;;;;17.38;3.10;;;;;;;;;;5078892;28;20056;-70
2022/11/03 10:06:50;;;;;;;13.52;2.78;;;;;;;;;;5077587;28;20042;-70
2022/11/03 10:09:19;;;;;;;8.15;2.00;;;;;;;;;;5082301;28;20063;-70
2022/11/03 10:11:48;;;;;;;14.65;2.78;;;;;;;;;;5085580;28;20047;-71
2022/11/03 10:14:16;;;;;;;17.67;2.47;;;;;;;;;;5083677;28;20058;-72
2022/11/03 10:16:44;;;;;;;11.82;2.25;;;;;;;;;;5082418;28;20449;-70
2022/11/03 10:19:13;;;;;;;13.63;2.58;;;;;;;;;;5086517;28;20070;-71
2022/11/03 10:21:42;;;;;;;13.65;2.83;;;;;;;;;;5062659;28;20086;-70
2022/11/03 10:24:11;;;;;;;11.95;2.25;;;;;;;;;;5081198;28;20401;-70
2022/11/03 10:26:50;;;;;;;13.07;2.30;;;;;;;;;;5084479;28;20052;-70
2022/11/03 10:29:19;;;;;;;12.57;3.20;;;;;;;;;;5076761;28;20043;-70
2022/11/03 10:31:48;;;;;;;13.05;2.67;;;;;;;;;;5079546;28;20051;-71
2022/11/03 10:34:26;;;;;;;20.80;2.83;;;;;;;;;;5078268;28;20060;-72
2022/11/03 10:37:08;;;;;;;14.43;2.83;;;;;;;;;;5081212;28;20066;-71
2022/11/03 10:39:36;;;;;;;12.35;2.70;;;;;;;;;;5082504;28;20040;-70
2022/11/03 10:42:05;;;;;;;17.60;2.58;;;;;;;;;;5083876;28;20444;-70
2022/11/03 10:44:32;;;;;;;16.75;3.53;;;;;;;;;;5083041;28;20425;-70
2022/11/03 10:47:00;;;;;;;15.68;2.38;;;;;;;;;;5064144;28;20055;-71
2022/11/03 10:49:28;;;;;;;12.13;2.80;;;;;;;;;;5084450;28;20048;-70
2022/11/03 10:51:59;;;;;;;13.30;2.72;;;;;;;;;;5079506;28;20074;-70
2022/11/03 10:54:27;;;;;;;14.07;3.15;;;;;;;;;;5077306;28;20105;-70
2022/11/03 10:56:54;;;;;;;15.57;2.55;;;;;;;;;;5081517;28;20123;-71
2022/11/03 10:59:35;;;;;;;13.52;2.75;;;;;;;;;;5079599;28;20048;-71
2022/11/03 11:02:03;;;;;;;11.68;2.53;;;;;;;;;;5082989;28;20055;-72
2022/11/03 11:04:32;;;;;;;16.27;2.47;;;;;;;;;;5078699;28;20059;-70
2022/11/03 11:07:00;;;;;;;14.60;2.75;;;;;;;;;;5084991;28;20685;-69
2022/11/03 11:09:27;;;;;;;15.43;2.67;;;;;;;;;;5067728;28;20067;-70
2022/11/03 11:12:02;;;;;;;12.45;2.47;;;;;;;;;;5081183;28;20467;-70
2022/11/03 11:14:38;;;;;;;14.32;2.50;;;;;;;;;;5084401;28;20055;-72
2022/11/03 11:17:05;;;;;;;9.65;2.20;;;;;;;;;;5081236;28;20091;-72
2022/11/03 11:19:57;;;;;;;13.85;2.30;;;;;;;;;;5079036;28;20067;-72
2022/11/03 11:22:25;;;;;;;18.13;2.83;;;;;;;;;;5083900;28;20514;-71
2022/11/03 11:24:59;;;;;;;12.68;2.83;;;;;;;;;;5072790;28;20052;-70
2022/11/03 11:27:45;;;;;;;15.07;2.30;;;;;;;;;;5077291;28;20639;-70
2022/11/03 11:30:27;;;;;;;11.10;2.53;;;;;;;;;;5065549;28;20494;-71
2022/11/03 11:33:01;;;;;;;19.05;2.50;;;;;;;;;;5078717;28;20521;-70
2022/11/03 11:35:47;;;;;;;12.55;2.65;;;;;;;;;;5058446;28;20060;-71
2022/11/03 11:38:33;;;;;;;11.43;2.45;;;;;;;;;;5076900;28;20055;-70
2022/11/03 11:41:00;;;;;;;14.38;2.42;;;;;;;;;;5077928;28;20048;-70
2022/11/03 11:43:28;;;;;;;14.00;2.30;;;;;;;;;;5075253;28;20048;-70
2022/11/03 11:46:14;;;;;;;13.90;2.42;;;;;;;;;;5076759;28;20052;-71
2022/11/03 11:48:42;;;;;;;15.48;2.30;;;;;;;;;;5075959;28;20040;-71
2022/11/03 11:51:10;;;;;;;16.52;2.80;;;;;;;;;;5073398;28;20052;-71
2022/11/03 11:53:39;;;;;;;20.90;2.42;;;;;;;;;;5076137;28;20526;-71
2022/11/03 11:56:09;;;;;;;12.55;2.47;;;;;;;;;;5079226;28;20047;-70
2022/11/03 11:58:42;;;;;;;12.95;2.70;;;;;;;;;;5078615;28;20048;-71
2022/11/03 12:01:22;;;;;;;20.03;3.00;;;;;;;;;;5078434;28;20044;-70
2022/11/03 12:03:51;;;;;;;11.07;2.72;;;;;;;;;;5075833;28;20103;-71
2022/11/03 12:06:32;;;;;;;12.57;2.15;;;;;;;;;;5053784;28;20545;-71
2022/11/03 12:09:04;;;;;;;12.93;3.03;;;;;;;;;;5072583;28;20047;-72
2022/11/03 12:11:41;;;;;;;16.30;3.30;;;;;;;;;;5054944;28;20086;-71
2022/11/03 12:14:21;;;;;;;10.35;2.05;;;;;;;;;;5060014;28;20044;-71
2022/11/03 12:16:49;;;;;;;16.05;2.45;;;;;;;;;;5076715;28;20040;-71
2022/11/03 12:19:35;;;;;;;10.18;2.53;;;;;;;;;;5073617;28;20059;-71
2022/11/03 12:22:04;;;;;;;7.68;2.05;;;;;;;;;;5078520;28;20047;-70
2022/11/03 12:24:55;;;;;;;14.20;2.88;;;;;;;;;;5076248;28;20059;-70
2022/11/03 12:27:42;;;;;;;9.70;2.10;;;;;;;;;;5050230;28;20052;-70
2022/11/03 12:30:13;;;;;;;6.78;1.98;;;;;;;;;;5077522;28;20048;-70
2022/11/03 12:32:40;;;;;;;11.80;2.78;;;;;;;;;;5077051;28;20044;-71
2022/11/03 12:35:09;;;;;;;10.25;2.45;;;;;;;;;;5078362;28;20066;-70
2022/11/03 12:37:38;;;;;;;12.13;2.40;;;;;;;;;;5079510;28;20044;-71
2022/11/03 12:40:05;;;;;;;15.55;2.63;;;;;;;;;;5075477;28;20059;-71
2022/11/03 12:42:33;;;;;;;11.02;2.30;;;;;;;;;;5075175;28;20139;-71
2022/11/03 12:45:01;;;;;;;9.85;2.55;;;;;;;;;;5077507;28;20056;-70
2022/11/03 12:47:28;;;;;;;8.20;2.05;;;;;;;;;;5082438;28;20059;-71
2022/11/03 12:49:55;;;;;;;14.45;2.35;;;;;;;;;;5081405;28;20048;-71
2022/11/03 12:52:23;;;;;;;12.07;1.90;;;;;;;;;;5081987;28;20501;-70
2022/11/03 12:54:51;;;;;;;8.77;2.03;;;;;;;;;;5082523;28;20067;-70
2022/11/03 12:57:18;;;;;;;7.60;1.88;;;;;;;;;;5081738;28;20052;-70
2022/11/03 12:59:46;;;;;;;7.78;2.13;;;;;;;;;;5084189;28;20627;-70
2022/11/03 13:02:13;;;;;;;11.57;2.58;;;;;;;;;;5082551;28;20056;-71
2022/11/03 13:04:40;;;;;;;16.73;2.30;;;;;;;;;;5062206;28;20087;-70
2022/11/03 13:07:07;;;;;;;8.05;2.15;;;;;;;;;;5084038;28;20036;-71
2022/11/03 13:09:35;;;;;;;10.93;2.05;;;;;;;;;;5083525;28;20044;-70
2022/11/03 13:14:49;;;;;;;9.68;2.33;;;;;;;;;;5085439;28;20071;-70
2022/11/03 13:17:16;;;;;;;9.85;1.98;;;;;;;;;;5085699;28;20525;-71
2022/11/03 13:19:43;;;;;;;6.63;2.28;;;;;;;;;;5083640;28;20127;-71
2022/11/03 13:22:10;;;;;;;11.27;2.63;;;;;;;;;;5083795;28;20500;-71
2022/11/03 13:24:38;;;;;;;6.10;1.85;;;;;;;;;;5087881;28;20056;-70
2022/11/03 13:27:06;;;;;;;8.23;1.85;;;;;;;;;;5084375;28;20056;-71
2022/11/03 13:29:34;;;;;;;18.60;2.97;;;;;;;;;;5085866;28;20040;-70
2022/11/03 13:32:02;;;;;;;7.82;1.70;;;;;;;;;;5067992;28;20062;-71
2022/11/03 13:34:29;;;;;;;8.70;1.67;;;;;;;;;;5085173;28;20401;-70
2022/11/03 13:36:57;;;;;;;10.52;2.03;;;;;;;;;;5086571;28;20048;-70
2022/11/03 13:39:24;;;;;;;14.30;2.08;;;;;;;;;;5081580;28;20131;-70
2022/11/03 13:41:51;;;;;;;10.68;1.98;;;;;;;;;;5062313;28;20044;-70
2022/11/03 13:44:20;;;;;;;11.30;2.20;;;;;;;;;;5086638;28;20060;-70
2022/11/03 13:46:48;;;;;;;14.80;2.10;;;;;;;;;;5083122;28;20044;-70
2022/11/03 13:49:15;;;;;;;9.15;1.60;;;;;;;;;;5084772;28;20056;-70
2022/11/03 13:51:42;;;;;;;12.60;2.10;;;;;;;;;;5079274;28;20094;-70
2022/11/03 13:54:10;;;;;;;8.15;1.92;;;;;;;;;;5087267;28;20094;-71
2022/11/03 13:56:37;;;;;;;11.77;2.00;;;;;;;;;;5083972;28;20047;-70
2022/11/03 13:59:04;;;;;;;14.07;1.80;;;;;;;;;;5087273;28;20059;-70
2022/11/03 14:01:33;;;;;;;12.20;2.00;;;;;;;;;;5086268;28;20103;-70
2022/11/03 14:04:00;;;;;;;12.82;2.13;;;;;;;;;;5081663;28;20397;-71
2022/11/03 14:06:27;;;;;;;10.23;1.73;;;;;;;;;;5086611;28;20044;-70
2022/11/03 14:08:54;;;;;;;7.15;1.83;;;;;;;;;;5086254;28;20044;-70
2022/11/03 14:14:07;;;;;;;8.10;2.17;;;;;;;;;;5065355;28;20078;-71
2022/11/03 14:16:35;;;;;;;12.25;2.40;;;;;;;;;;5085009;28;20442;-71
2022/11/03 14:19:02;;;;;;;10.70;1.90;;;;;;;;;;5084359;28;20044;-70
2022/11/03 14:21:30;;;;;;;7.65;1.80;;;;;;;;;;5065888;28;20596;-70
2022/11/03 14:23:57;;;;;;;8.73;1.83;;;;;;;;;;5087587;28;20047;-70
2022/11/03 14:26:24;;;;;;;10.05;2.40;;;;;;;;;;5081350;28;20044;-70
2022/11/03 14:28:51;;;;;;;5.78;1.90;;;;;;;;;;5084935;28;20040;-71
2022/11/03 14:31:19;;;;;;;5.85;1.98;;;;;;;;;;5083591;28;20704;-72
2022/11/03 14:33:47;;;;;;;8.00;1.88;;;;;;;;;;5084522;28;20047;-71
2022/11/03 14:36:14;;;;;;;12.75;2.13;;;;;;;;;;5084897;28;20117;-71
2022/11/03 14:38:42;;;;;;;15.48;2.45;;;;;;;;;;5087730;28;20048;-70
2022/11/03 14:43:54;;;;;;;11.00;2.20;;;;;;;;;;5084615;28;20043;-71
2022/11/03 14:46:21;;;;;;;9.48;2.75;;;;;;;;;;5085911;28;20047;-71
2022/11/03 14:48:50;;;;;;;11.43;2.38;;;;;;;;;;5081987;28;20132;-72
2022/11/03 14:51:17;;;;;;;7.75;2.17;;;;;;;;;;5082040;28;20044;-70
2022/11/03 14:53:44;;;;;;;12.63;2.67;;;;;;;;;;5083741;28;20143;-71
2022/11/03 14:56:11;;;;;;;10.93;2.30;;;;;;;;;;5082525;28;20056;-71
2022/11/03 14:58:39;;;;;;;11.52;2.70;;;;;;;;;;5080045;28;20048;-71
2022/11/03 15:01:06;;;;;;;14.13;3.00;;;;;;;;;;5084428;28;20719;-71
2022/11/03 15:03:33;;;;;;;12.15;2.25;;;;;;;;;;5084669;28;20047;-71
2022/11/03 15:06:02;;;;;;;10.00;2.65;;;;;;;;;;5086456;28;20043;-71
2022/11/03 15:08:31;;;;;;;10.98;2.50;;;;;;;;;;5068233;28;20083;-71
2022/11/03 15:10:58;;;;;;;9.80;2.42;;;;;;;;;;5085026;28;20040;-71